Time;durP1;ratioP1;P1;durP2;ratioP2;P2;SDS_P1;SDS_P2;PMS_P1;PMS_P2;Temp;Humidity;BMP_temperature;BMP_pressure;BME280_temperature;BME280_humidity;BME280_pressure;Samples;Min_cycle;Max_cycle;Signal;HPM_P1;HPM_P2
2023/07/03 00:02:16;;;;;;;;;;;25.70;52.20;;;;;;5052759;28;20011;-58
2023/07/03 00:04:46;;;;;;;;;;;25.70;52.20;;;;;;5052633;28;19931;-59
2023/07/03 00:07:14;;;;;;;;;;;25.70;52.20;;;;;;5052932;28;19921;-59
2023/07/03 00:09:42;;;;;;;;;;;25.70;52.20;;;;;;5052417;28;19967;-58
2023/07/03 00:12:10;;;;;;;;;;;25.70;52.20;;;;;;5053269;28;19975;-58
2023/07/03 00:14:38;;;;;;;;;;;25.70;52.30;;;;;;5052772;28;19924;-58
2023/07/03 00:17:07;;;;;;;;;;;25.70;52.30;;;;;;5053990;28;20285;-58
2023/07/03 00:19:34;;;;;;;;;;;25.70;52.30;;;;;;5056678;28;19920;-58
2023/07/03 00:22:01;;;;;;;;;;;25.70;52.30;;;;;;5056757;28;20373;-58
2023/07/03 00:24:29;;;;;;;;;;;25.60;52.20;;;;;;5056567;28;19920;-59
2023/07/03 00:26:57;;;;;;;;;;;25.70;52.30;;;;;;5056580;28;19978;-59
2023/07/03 00:29:24;;;;;;;;;;;25.60;52.80;;;;;;5056499;28;19974;-59
2023/07/03 00:31:51;;;;;;;;;;;25.70;52.30;;;;;;5056802;28;19924;-59
2023/07/03 00:34:18;;;;;;;;;;;25.60;52.30;;;;;;5056014;28;19928;-59
2023/07/03 00:36:46;;;;;;;;;;;25.60;52.30;;;;;;5056297;28;19921;-59
2023/07/03 00:39:14;;;;;;;;;;;25.70;52.30;;;;;;5056348;28;19921;-59
2023/07/03 00:41:41;;;;;;;;;;;25.70;52.30;;;;;;5056816;28;19921;-59
2023/07/03 00:44:11;;;;;;;;;;;25.60;52.30;;;;;;5055997;28;19921;-59
2023/07/03 00:46:39;;;;;;;;;;;25.70;52.50;;;;;;5056525;28;19952;-59
2023/07/03 00:49:07;;;;;;;;;;;25.60;52.30;;;;;;5055943;28;19926;-59
2023/07/03 00:51:34;;;;;;;;;;;25.60;52.30;;;;;;5056364;28;20007;-60
2023/07/03 00:54:01;;;;;;;;;;;25.60;52.30;;;;;;5055719;28;20421;-59
2023/07/03 00:56:28;;;;;;;;;;;25.70;52.30;;;;;;5055857;28;19927;-59
2023/07/03 00:58:55;;;;;;;;;;;25.60;52.30;;;;;;5056379;28;19925;-60
2023/07/03 01:01:26;;;;;;;;;;;25.70;52.30;;;;;;5056388;28;19963;-59
2023/07/03 01:03:59;;;;;;;;;;;25.70;52.30;;;;;;5055337;28;19979;-60
2023/07/03 01:06:29;;;;;;;;;;;25.70;52.30;;;;;;5056116;28;19970;-59
2023/07/03 01:08:58;;;;;;;;;;;25.70;52.30;;;;;;5055109;28;20446;-59
2023/07/03 01:11:26;;;;;;;;;;;25.70;52.30;;;;;;5055915;28;19921;-59
2023/07/03 01:13:55;;;;;;;;;;;25.70;52.30;;;;;;5055724;28;20011;-59
2023/07/03 01:16:22;;;;;;;;;;;25.70;52.30;;;;;;5055516;28;19920;-60
2023/07/03 01:18:50;;;;;;;;;;;25.60;52.20;;;;;;5055992;28;19920;-59
2023/07/03 01:21:28;;;;;;;;;;;25.60;52.20;;;;;;5055816;28;20383;-60
2023/07/03 01:23:58;;;;;;;;;;;25.70;52.30;;;;;;5055831;28;19920;-59
2023/07/03 01:26:26;;;;;;;;;;;25.60;52.20;;;;;;5055215;28;20321;-59
2023/07/03 01:28:56;;;;;;;;;;;25.70;52.30;;;;;;5054076;28;19925;-60
2023/07/03 01:31:24;;;;;;;;;;;25.70;52.30;;;;;;5055525;28;19921;-61
2023/07/03 01:33:52;;;;;;;;;;;25.70;52.30;;;;;;5055435;28;19924;-59
2023/07/03 01:36:20;;;;;;;;;;;25.60;52.20;;;;;;5054853;28;19921;-59
2023/07/03 01:38:48;;;;;;;;;;;25.60;52.20;;;;;;5055101;28;20340;-59
2023/07/03 01:41:16;;;;;;;;;;;25.60;52.20;;;;;;5054890;28;19968;-59
2023/07/03 01:43:44;;;;;;;;;;;25.60;52.20;;;;;;5055311;28;20290;-60
2023/07/03 01:46:13;;;;;;;;;;;25.60;52.20;;;;;;5055396;28;20015;-59
2023/07/03 01:48:40;;;;;;;;;;;25.60;52.20;;;;;;5055458;28;19950;-59
2023/07/03 01:51:11;;;;;;;;;;;25.60;52.30;;;;;;5054995;28;19928;-59
2023/07/03 01:53:43;;;;;;;;;;;25.60;52.30;;;;;;5054964;28;20317;-59
2023/07/03 01:56:25;;;;;;;;;;;25.60;52.30;;;;;;5054850;28;19921;-59
2023/07/03 01:58:55;;;;;;;;;;;25.60;52.30;;;;;;5054579;28;20445;-59
2023/07/03 02:01:41;;;;;;;;;;;25.60;52.30;;;;;;5054773;28;20377;-60
2023/07/03 02:04:26;;;;;;;;;;;25.60;52.30;;;;;;5054788;28;19963;-59
2023/07/03 02:06:55;;;;;;;;;;;25.60;52.30;;;;;;5054284;28;19967;-59
2023/07/03 02:09:22;;;;;;;;;;;25.60;52.30;;;;;;5054751;28;19947;-59
2023/07/03 02:11:51;;;;;;;;;;;25.60;52.30;;;;;;5054954;28;19975;-60
2023/07/03 02:14:18;;;;;;;;;;;25.60;52.30;;;;;;5054064;28;19928;-59
2023/07/03 02:16:47;;;;;;;;;;;25.60;52.30;;;;;;5054822;28;19921;-59
2023/07/03 02:19:15;;;;;;;;;;;25.60;52.30;;;;;;5054792;28;20269;-59
2023/07/03 02:21:44;;;;;;;;;;;25.60;52.30;;;;;;5054743;28;20292;-59
2023/07/03 02:24:11;;;;;;;;;;;25.60;52.30;;;;;;5054029;28;20008;-59
2023/07/03 02:26:39;;;;;;;;;;;25.60;52.40;;;;;;5054506;28;19972;-59
2023/07/03 02:29:06;;;;;;;;;;;25.60;52.40;;;;;;5053688;28;19968;-59
2023/07/03 02:31:33;;;;;;;;;;;25.60;52.40;;;;;;5054390;28;19920;-60
2023/07/03 02:34:00;;;;;;;;;;;25.60;52.40;;;;;;5054268;28;19971;-60
2023/07/03 02:36:29;;;;;;;;;;;25.60;52.30;;;;;;5054178;28;19994;-59
2023/07/03 02:38:57;;;;;;;;;;;25.60;52.40;;;;;;5054382;28;19921;-59
2023/07/03 02:41:24;;;;;;;;;;;25.50;52.30;;;;;;5053731;28;19921;-59
2023/07/03 02:43:51;;;;;;;;;;;25.60;52.30;;;;;;5053959;28;19925;-59
2023/07/03 02:46:18;;;;;;;;;;;25.50;52.30;;;;;;5054323;28;19956;-59
2023/07/03 02:48:45;;;;;;;;;;;25.60;52.40;;;;;;5053788;28;19966;-59
2023/07/03 02:51:12;;;;;;;;;;;25.60;52.30;;;;;;5054030;28;19920;-59
2023/07/03 02:53:41;;;;;;;;;;;25.60;52.30;;;;;;5053927;28;19947;-59
2023/07/03 02:56:08;;;;;;;;;;;25.60;52.40;;;;;;5053683;28;19921;-59
2023/07/03 02:58:35;;;;;;;;;;;25.50;52.30;;;;;;5053457;28;19921;-59
2023/07/03 03:01:03;;;;;;;;;;;25.60;52.40;;;;;;5053633;28;20335;-59
2023/07/03 03:03:30;;;;;;;;;;;25.60;52.40;;;;;;5053716;28;20381;-59
2023/07/03 03:05:57;;;;;;;;;;;25.50;52.30;;;;;;5053328;28;19924;-59
2023/07/03 03:08:24;;;;;;;;;;;25.50;52.30;;;;;;5053300;28;19921;-59
2023/07/03 03:10:53;;;;;;;;;;;25.60;52.40;;;;;;5053929;28;19921;-59
2023/07/03 03:13:20;;;;;;;;;;;25.60;52.40;;;;;;5053074;28;20415;-59
2023/07/03 03:15:47;;;;;;;;;;;25.60;52.30;;;;;;5053507;28;20031;-59
2023/07/03 03:18:14;;;;;;;;;;;25.60;52.30;;;;;;5053715;28;19920;-59
2023/07/03 03:20:43;;;;;;;;;;;25.60;52.30;;;;;;5053146;28;19956;-59
2023/07/03 03:23:11;;;;;;;;;;;25.60;52.30;;;;;;5053935;28;19928;-59
2023/07/03 03:25:38;;;;;;;;;;;25.60;52.30;;;;;;5053626;28;20354;-59
2023/07/03 03:28:06;;;;;;;;;;;25.60;52.20;;;;;;5053236;28;19920;-59
2023/07/03 03:30:33;;;;;;;;;;;25.60;52.20;;;;;;5053143;28;19921;-59
2023/07/03 03:33:00;;;;;;;;;;;25.70;52.20;;;;;;5060706;28;19956;-59
2023/07/03 03:35:27;;;;;;;;;;;25.70;52.20;;;;;;5072147;28;19946;-59
2023/07/03 03:37:54;;;;;;;;;;;25.70;52.20;;;;;;5065704;28;19955;-59
2023/07/03 03:40:21;;;;;;;;;;;25.70;52.10;;;;;;5073128;28;19921;-59
2023/07/03 03:42:48;;;;;;;;;;;25.70;52.10;;;;;;5072733;28;19924;-59
2023/07/03 03:45:15;;;;;;;;;;;25.70;52.00;;;;;;5073204;28;19924;-60
2023/07/03 03:47:43;;;;;;;;;;;25.70;51.90;;;;;;5072422;28;19925;-59
2023/07/03 03:50:10;;;;;;;;;;;25.80;51.90;;;;;;5065834;28;19921;-59
2023/07/03 03:52:37;;;;;;;;;;;25.80;51.80;;;;;;5066421;28;20399;-59
2023/07/03 03:55:04;;;;;;;;;;;25.80;51.80;;;;;;5066537;28;19920;-59
2023/07/03 03:57:31;;;;;;;;;;;25.80;51.70;;;;;;5057609;28;19927;-59
2023/07/03 03:59:59;;;;;;;;;;;25.80;51.60;;;;;;5058259;28;19931;-59
2023/07/03 04:02:26;;;;;;;;;;;25.80;51.60;;;;;;5055483;28;20423;-60
2023/07/03 04:04:53;;;;;;;;;;;25.90;51.60;;;;;;5056201;28;19921;-59
2023/07/03 04:07:20;;;;;;;;;;;25.90;51.60;;;;;;5056921;28;19928;-59
2023/07/03 04:09:47;;;;;;;;;;;25.90;51.60;;;;;;5056500;28;20456;-60
2023/07/03 04:12:14;;;;;;;;;;;25.90;51.50;;;;;;5056221;28;19921;-59
2023/07/03 04:14:42;;;;;;;;;;;25.90;51.50;;;;;;5056381;28;19975;-59
2023/07/03 04:17:09;;;;;;;;;;;25.90;51.50;;;;;;5056230;28;19921;-59
2023/07/03 04:19:36;;;;;;;;;;;25.90;51.50;;;;;;5056761;28;19963;-59
2023/07/03 04:22:03;;;;;;;;;;;25.90;51.50;;;;;;5056711;28;19924;-59
2023/07/03 04:24:31;;;;;;;;;;;25.90;51.40;;;;;;5056808;28;19921;-59
2023/07/03 04:26:58;;;;;;;;;;;26.00;51.40;;;;;;5056535;28;19928;-59
2023/07/03 04:29:25;;;;;;;;;;;26.00;51.40;;;;;;5056689;28;19928;-59
2023/07/03 04:31:52;;;;;;;;;;;26.00;51.30;;;;;;5056595;28;19963;-60
2023/07/03 04:34:20;;;;;;;;;;;26.00;51.30;;;;;;5056198;28;19956;-60
2023/07/03 04:36:47;;;;;;;;;;;26.00;51.30;;;;;;5056779;28;19990;-59
2023/07/03 04:39:15;;;;;;;;;;;25.90;51.50;;;;;;5056251;28;19979;-59
2023/07/03 04:41:43;;;;;;;;;;;25.80;51.50;;;;;;5056344;28;19924;-59
2023/07/03 04:44:12;;;;;;;;;;;25.70;51.80;;;;;;5055136;28;19944;-59
2023/07/03 04:46:40;;;;;;;;;;;25.50;52.10;;;;;;5055646;28;19924;-59
2023/07/03 04:49:07;;;;;;;;;;;25.20;52.30;;;;;;5055971;28;19992;-59
2023/07/03 04:51:34;;;;;;;;;;;24.90;51.90;;;;;;5056030;28;19921;-59
2023/07/03 04:54:03;;;;;;;;;;;24.70;51.50;;;;;;5055958;28;19967;-59
2023/07/03 04:56:32;;;;;;;;;;;24.40;51.30;;;;;;5055683;28;19975;-59
2023/07/03 04:58:59;;;;;;;;;;;24.00;50.60;;;;;;5056322;28;19974;-60
2023/07/03 05:01:26;;;;;;;;;;;23.70;50.90;;;;;;5054267;28;19924;-59
2023/07/03 05:03:53;;;;;;;;;;;23.30;50.70;;;;;;5054928;28;21646;-59
2023/07/03 05:06:20;;;;;;;;;;;23.00;50.30;;;;;;5055057;28;19920;-59
2023/07/03 05:08:47;;;;;;;;;;;22.70;50.80;;;;;;5054380;28;20377;-58
2023/07/03 05:11:14;;;;;;;;;;;22.40;50.70;;;;;;5053276;28;19979;-59
2023/07/03 05:13:42;;;;;;;;;;;22.10;51.00;;;;;;5053832;28;20323;-61
2023/07/03 05:16:09;;;;;;;;;;;21.80;51.40;;;;;;5056861;28;19974;-61
2023/07/03 05:18:36;;;;;;;;;;;21.50;52.50;;;;;;5050754;28;19960;-61
2023/07/03 05:21:06;;;;;;;;;;;21.30;52.90;;;;;;5048990;28;20385;-59
2023/07/03 05:23:33;;;;;;;;;;;21.10;53.20;;;;;;5050646;28;19925;-60
2023/07/03 05:26:00;;;;;;;;;;;20.90;53.80;;;;;;5065525;28;20344;-60
2023/07/03 05:28:27;;;;;;;;;;;20.80;54.20;;;;;;5051363;28;20323;-61
2023/07/03 05:30:55;;;;;;;;;;;20.70;54.30;;;;;;5044963;28;19928;-61
2023/07/03 05:33:24;;;;;;;;;;;20.60;55.10;;;;;;5051219;28;19920;-61
2023/07/03 05:35:52;;;;;;;;;;;20.50;55.90;;;;;;5047744;28;20016;-62
2023/07/03 05:38:20;;;;;;;;;;;20.50;55.80;;;;;;5049647;28;19964;-62
2023/07/03 05:40:49;;;;;;;;;;;20.40;56.10;;;;;;5047324;28;19929;-62
2023/07/03 05:43:17;;;;;;;;;;;20.30;56.70;;;;;;5046190;28;19954;-63
2023/07/03 05:45:46;;;;;;;;;;;20.30;56.10;;;;;;5042136;28;20028;-63
2023/07/03 05:48:13;;;;;;;;;;;20.30;56.40;;;;;;5042426;28;19920;-62
2023/07/03 05:50:41;;;;;;;;;;;20.20;56.30;;;;;;5046836;28;19929;-62
2023/07/03 05:53:09;;;;;;;;;;;20.20;57.10;;;;;;5041910;28;19928;-63
2023/07/03 05:55:36;;;;;;;;;;;20.20;56.80;;;;;;5045488;28;19978;-62
2023/07/03 05:58:03;;;;;;;;;;;20.20;57.10;;;;;;5047453;28;20437;-62
2023/07/03 06:00:30;;;;;;;;;;;20.20;56.50;;;;;;5046756;28;20377;-61
2023/07/03 06:02:59;;;;;;;;;;;20.20;56.90;;;;;;5047784;28;20290;-62
2023/07/03 06:05:26;;;;;;;;;;;20.20;56.80;;;;;;5046979;28;19920;-61
2023/07/03 06:07:56;;;;;;;;;;;20.20;56.20;;;;;;5072983;28;19986;-61
2023/07/03 06:10:23;;;;;;;;;;;20.20;56.50;;;;;;5046641;28;19928;-62
2023/07/03 06:12:50;;;;;;;;;;;20.20;56.10;;;;;;5042917;28;20411;-61
2023/07/03 06:15:18;;;;;;;;;;;20.20;57.00;;;;;;5043574;28;20352;-61
2023/07/03 06:17:45;;;;;;;;;;;20.10;56.40;;;;;;5044299;28;19924;-63
2023/07/03 06:20:12;;;;;;;;;;;20.10;56.50;;;;;;5046963;28;20361;-62
2023/07/03 06:22:40;;;;;;;;;;;20.10;56.50;;;;;;5045624;28;19972;-62
2023/07/03 06:25:07;;;;;;;;;;;20.00;56.40;;;;;;5043343;28;20042;-62
2023/07/03 06:27:34;;;;;;;;;;;20.00;56.50;;;;;;5041867;28;19960;-60
2023/07/03 06:30:02;;;;;;;;;;;20.00;56.50;;;;;;5043561;28;20340;-60
2023/07/03 06:32:29;;;;;;;;;;;19.90;57.00;;;;;;5041202;28;19931;-60
2023/07/03 06:34:56;;;;;;;;;;;19.90;57.70;;;;;;5048798;28;19936;-61
2023/07/03 06:37:30;;;;;;;;;;;19.80;57.00;;;;;;5045196;28;19926;-63
2023/07/03 06:39:57;;;;;;;;;;;19.80;57.20;;;;;;5046346;28;19937;-61
2023/07/03 06:42:25;;;;;;;;;;;19.80;57.30;;;;;;5043272;28;20012;-60
2023/07/03 06:44:52;;;;;;;;;;;19.80;57.50;;;;;;5040444;28;19921;-60
2023/07/03 06:47:19;;;;;;;;;;;19.80;57.60;;;;;;5043988;28;19939;-60
2023/07/03 06:49:47;;;;;;;;;;;19.80;57.50;;;;;;5043826;28;20381;-60
2023/07/03 06:52:14;;;;;;;;;;;19.80;57.50;;;;;;5040726;28;19928;-62
2023/07/03 06:54:41;;;;;;;;;;;19.80;57.60;;;;;;5047293;28;19921;-60
2023/07/03 06:57:08;;;;;;;;;;;19.80;57.80;;;;;;5045044;28;19924;-60
2023/07/03 06:59:35;;;;;;;;;;;19.80;57.70;;;;;;5044466;28;20385;-60
2023/07/03 07:02:04;;;;;;;;;;;19.90;57.50;;;;;;5049035;28;19924;-60
2023/07/03 07:04:31;;;;;;;;;;;19.90;57.00;;;;;;5038759;28;19987;-60
2023/07/03 07:06:58;;;;;;;;;;;19.80;58.00;;;;;;5042270;28;19960;-59
2023/07/03 07:09:26;;;;;;;;;;;19.80;58.00;;;;;;5046055;28;19932;-60
2023/07/03 07:11:52;;;;;;;;;;;19.80;58.00;;;;;;5040424;28;20413;-62
2023/07/03 07:14:20;;;;;;;;;;;19.80;57.30;;;;;;5042947;28;19936;-61
2023/07/03 07:16:48;;;;;;;;;;;19.80;57.80;;;;;;5042048;28;20288;-59
2023/07/03 07:19:15;;;;;;;;;;;19.80;57.60;;;;;;5040818;28;19920;-60
2023/07/03 07:21:43;;;;;;;;;;;19.90;57.40;;;;;;5041366;28;19920;-60
2023/07/03 07:24:15;;;;;;;;;;;19.90;57.80;;;;;;5044657;28;19967;-60
2023/07/03 07:26:42;;;;;;;;;;;19.90;57.10;;;;;;5042926;28;20346;-60
2023/07/03 07:29:09;;;;;;;;;;;19.90;57.90;;;;;;5047759;28;19966;-60
2023/07/03 07:31:36;;;;;;;;;;;19.90;57.60;;;;;;5043411;28;19935;-62
2023/07/03 07:34:08;;;;;;;;;;;19.90;57.80;;;;;;5043528;28;20003;-61
2023/07/03 07:36:37;;;;;;;;;;;20.00;57.50;;;;;;5043825;28;19974;-61
2023/07/03 07:39:04;;;;;;;;;;;20.00;57.60;;;;;;5043736;28;20558;-60
2023/07/03 07:41:31;;;;;;;;;;;20.00;57.20;;;;;;5045608;28;19924;-60
2023/07/03 07:43:58;;;;;;;;;;;20.10;57.30;;;;;;5045868;28;19925;-60
2023/07/03 07:46:28;;;;;;;;;;;20.10;57.90;;;;;;5044525;28;19932;-59
2023/07/03 07:48:57;;;;;;;;;;;20.10;57.50;;;;;;5043302;28;20015;-59
2023/07/03 07:51:24;;;;;;;;;;;20.00;57.80;;;;;;5042585;28;20016;-61
2023/07/03 07:53:52;;;;;;;;;;;20.10;59.20;;;;;;5047201;28;19954;-59
2023/07/03 07:56:20;;;;;;;;;;;20.10;58.60;;;;;;5043434;28;19924;-60
2023/07/03 07:58:47;;;;;;;;;;;20.10;58.20;;;;;;5043905;28;19998;-60
2023/07/03 08:01:15;;;;;;;;;;;20.10;58.50;;;;;;5039736;28;19925;-63
2023/07/03 08:03:43;;;;;;;;;;;20.10;58.60;;;;;;5047366;28;19983;-59
2023/07/03 08:06:11;;;;;;;;;;;20.10;58.80;;;;;;5045874;28;19921;-63
2023/07/03 08:08:38;;;;;;;;;;;20.10;58.40;;;;;;5040973;28;19928;-61
2023/07/03 08:11:06;;;;;;;;;;;20.10;58.00;;;;;;5042084;28;19921;-59
2023/07/03 08:13:35;;;;;;;;;;;20.10;58.30;;;;;;5041436;28;20381;-59
2023/07/03 08:16:02;;;;;;;;;;;20.10;58.80;;;;;;5046565;28;19921;-59
2023/07/03 08:18:29;;;;;;;;;;;20.10;58.50;;;;;;5038648;28;19929;-59
2023/07/03 08:20:56;;;;;;;;;;;20.10;58.30;;;;;;5039797;28;19975;-59
2023/07/03 08:23:23;;;;;;;;;;;20.00;58.10;;;;;;5038921;28;19932;-59
2023/07/03 08:25:52;;;;;;;;;;;20.10;58.40;;;;;;5040874;28;19997;-58
2023/07/03 08:28:20;;;;;;;;;;;20.00;58.70;;;;;;5041137;28;19928;-59
2023/07/03 08:30:47;;;;;;;;;;;20.00;58.50;;;;;;5046108;28;19974;-59
2023/07/03 08:33:14;;;;;;;;;;;20.00;58.90;;;;;;5041882;28;19948;-59
2023/07/03 08:35:41;;;;;;;;;;;20.00;58.50;;;;;;5038115;28;19929;-58
2023/07/03 08:38:11;;;;;;;;;;;20.00;58.60;;;;;;5041916;28;19929;-59
2023/07/03 08:40:38;;;;;;;;;;;20.00;58.00;;;;;;5046760;28;19932;-59
2023/07/03 08:43:09;;;;;;;;;;;20.00;58.60;;;;;;5047997;28;19921;-57
2023/07/03 08:45:37;;;;;;;;;;;20.00;57.90;;;;;;5048127;28;19929;-58
2023/07/03 08:48:09;;;;;;;;;;;20.00;57.90;;;;;;5046782;28;19924;-58
2023/07/03 08:50:37;;;;;;;;;;;20.00;58.40;;;;;;5045589;28;20003;-59
2023/07/03 08:53:04;;;;;;;;;;;20.00;58.30;;;;;;5043166;28;19924;-58
2023/07/03 08:55:34;;;;;;;;;;;20.00;58.60;;;;;;5045974;28;19924;-58
2023/07/03 08:58:01;;;;;;;;;;;20.00;58.00;;;;;;5046862;28;19991;-59
2023/07/03 09:00:31;;;;;;;;;;;19.90;58.00;;;;;;5049506;28;19963;-60
2023/07/03 09:03:03;;;;;;;;;;;19.90;58.40;;;;;;5047410;28;20007;-60
2023/07/03 09:05:43;;;;;;;;;;;19.90;58.20;;;;;;5047011;28;19971;-61
2023/07/03 09:08:13;;;;;;;;;;;19.90;58.40;;;;;;5046571;28;19929;-60
2023/07/03 09:10:43;;;;;;;;;;;19.90;58.20;;;;;;5044042;28;19964;-60
2023/07/03 09:13:15;;;;;;;;;;;19.90;58.50;;;;;;5046983;28;19989;-61
2023/07/03 09:15:49;;;;;;;;;;;19.90;58.30;;;;;;5045468;28;19929;-60
2023/07/03 09:18:20;;;;;;;;;;;20.00;58.00;;;;;;5048378;28;19966;-59
2023/07/03 09:20:47;;;;;;;;;;;20.00;58.30;;;;;;5046212;28;20353;-60
2023/07/03 09:23:23;;;;;;;;;;;20.00;58.00;;;;;;5050549;28;19933;-60
2023/07/03 09:25:52;;;;;;;;;;;20.10;57.80;;;;;;5047651;28;19928;-60
2023/07/03 09:28:20;;;;;;;;;;;20.10;57.70;;;;;;5047804;28;19924;-60
2023/07/03 09:30:48;;;;;;;;;;;20.10;57.40;;;;;;5043872;28;19928;-56
2023/07/03 09:33:16;;;;;;;;;;;20.00;57.30;;;;;;5046102;28;19931;-61
2023/07/03 09:35:43;;;;;;;;;;;20.10;57.70;;;;;;5062116;28;20343;-61
2023/07/03 09:38:12;;;;;;;;;;;20.10;58.10;;;;;;5036077;28;19929;-60
2023/07/03 09:40:41;;;;;;;;;;;20.00;57.60;;;;;;5044178;28;19982;-61
2023/07/03 09:43:13;;;;;;;;;;;20.00;57.70;;;;;;5036818;28;19931;-59
2023/07/03 09:45:40;;;;;;;;;;;20.00;57.00;;;;;;5039396;28;20642;-59
2023/07/03 09:48:11;;;;;;;;;;;20.00;58.00;;;;;;5042089;28;19924;-60
2023/07/03 09:50:39;;;;;;;;;;;19.90;58.00;;;;;;5038946;28;20393;-58
2023/07/03 09:53:26;;;;;;;;;;;19.90;58.10;;;;;;5033198;28;20297;-58
2023/07/03 09:55:54;;;;;;;;;;;19.90;58.40;;;;;;5046548;28;19924;-58
2023/07/03 09:58:23;;;;;;;;;;;19.80;58.60;;;;;;5040577;28;19928;-57
2023/07/03 10:00:53;;;;;;;;;;;19.80;58.30;;;;;;5046142;28;19924;-58
2023/07/03 10:03:23;;;;;;;;;;;19.70;58.60;;;;;;5049769;28;20224;-58
2023/07/03 10:05:53;;;;;;;;;;;19.60;59.10;;;;;;5048178;28;20350;-60
2023/07/03 10:08:24;;;;;;;;;;;19.70;59.10;;;;;;5047051;28;19925;-59
2023/07/03 10:10:58;;;;;;;;;;;19.70;58.80;;;;;;5047308;28;19964;-58
2023/07/03 10:13:29;;;;;;;;;;;19.80;58.80;;;;;;5043613;28;20015;-59
2023/07/03 10:15:56;;;;;;;;;;;19.80;58.80;;;;;;5047586;28;19971;-59
2023/07/03 10:18:35;;;;;;;;;;;19.80;58.70;;;;;;5042516;28;19991;-59
2023/07/03 10:21:05;;;;;;;;;;;19.80;58.80;;;;;;5046935;28;20415;-59
2023/07/03 10:23:34;;;;;;;;;;;19.80;58.40;;;;;;5047200;28;19924;-59
2023/07/03 10:26:18;;;;;;;;;;;19.80;58.10;;;;;;5079907;28;20444;-59
2023/07/03 10:28:48;;;;;;;;;;;19.80;58.60;;;;;;5050470;28;19921;-60
2023/07/03 10:31:20;;;;;;;;;;;19.80;58.70;;;;;;5046165;28;19924;-60
2023/07/03 10:33:56;;;;;;;;;;;19.80;59.10;;;;;;5044091;28;19988;-58
2023/07/03 10:36:25;;;;;;;;;;;19.80;58.70;;;;;;5042210;28;19927;-58
2023/07/03 10:38:55;;;;;;;;;;;19.90;59.10;;;;;;5041815;28;19928;-58
2023/07/03 10:41:35;;;;;;;;;;;19.90;58.70;;;;;;5045830;28;19943;-58
2023/07/03 10:44:07;;;;;;;;;;;19.90;59.00;;;;;;5041135;28;20833;-58
2023/07/03 10:46:38;;;;;;;;;;;19.90;59.10;;;;;;5045433;28;19925;-58
2023/07/03 10:49:08;;;;;;;;;;;20.00;59.60;;;;;;5040908;28;19929;-57
2023/07/03 10:51:47;;;;;;;;;;;20.00;59.60;;;;;;5043388;28;19928;-57
2023/07/03 10:54:17;;;;;;;;;;;20.00;59.70;;;;;;5040212;28;19920;-58
2023/07/03 10:56:45;;;;;;;;;;;20.00;60.10;;;;;;5042446;28;19929;-59
2023/07/03 10:59:20;;;;;;;;;;;20.00;60.10;;;;;;5045919;28;19924;-59
2023/07/03 11:01:56;;;;;;;;;;;20.00;59.90;;;;;;5046725;28;20727;-55
2023/07/03 11:04:43;;;;;;;;;;;20.00;59.90;;;;;;5043884;28;19936;-58
2023/07/03 11:07:30;;;;;;;;;;;19.90;60.90;;;;;;5047675;28;19924;-55
2023/07/03 11:10:04;;;;;;;;;;;19.90;61.30;;;;;;5045580;28;19978;-58
2023/07/03 11:12:37;;;;;;;;;;;19.90;61.30;;;;;;5048588;28;19925;-58
2023/07/03 11:15:18;;;;;;;;;;;19.90;61.60;;;;;;5047146;28;19986;-59
2023/07/03 11:18:05;;;;;;;;;;;19.90;61.50;;;;;;5044736;28;19948;-59
2023/07/03 11:20:55;;;;;;;;;;;20.10;61.10;;;;;;5070613;28;19924;-61
2023/07/03 11:23:37;;;;;;;;;;;20.10;61.30;;;;;;5043536;28;21222;-62
2023/07/03 11:26:24;;;;;;;;;;;20.20;62.00;;;;;;5048947;28;19982;-61
2023/07/03 11:28:55;;;;;;;;;;;20.30;60.30;;;;;;5044686;28;20015;-61
2023/07/03 11:31:25;;;;;;;;;;;20.40;59.90;;;;;;5045072;28;19925;-59
2023/07/03 11:33:53;;;;;;;;;;;20.50;59.20;;;;;;5044947;28;19924;-63
2023/07/03 11:36:43;;;;;;;;;;;20.50;59.40;;;;;;5044873;28;21761;-60
2023/07/03 11:39:24;;;;;;;;;;;20.60;59.30;;;;;;5044094;28;20015;-60
2023/07/03 11:42:09;;;;;;;;;;;20.70;59.10;;;;;;5043169;28;20023;-59
2023/07/03 11:44:41;;;;;;;;;;;20.70;58.70;;;;;;5048392;28;20011;-59
2023/07/03 11:47:11;;;;;;;;;;;20.60;58.10;;;;;;5044009;28;19924;-60
2023/07/03 11:49:51;;;;;;;;;;;20.60;58.00;;;;;;5046567;28;19928;-61
2023/07/03 11:52:26;;;;;;;;;;;20.60;57.10;;;;;;5046923;28;19924;-62
2023/07/03 11:55:00;;;;;;;;;;;20.60;57.00;;;;;;5047872;28;20023;-61
2023/07/03 11:57:38;;;;;;;;;;;20.60;57.40;;;;;;5047424;28;19929;-62
2023/07/03 12:00:24;;;;;;;;;;;20.60;56.80;;;;;;5043433;28;19958;-61
2023/07/03 12:02:53;;;;;;;;;;;20.50;56.70;;;;;;5048628;28;20456;-60
2023/07/03 12:05:41;;;;;;;;;;;20.50;56.70;;;;;;5042298;28;20297;-61
2023/07/03 12:08:12;;;;;;;;;;;20.50;56.50;;;;;;5041437;28;19924;-60
2023/07/03 12:10:41;;;;;;;;;;;20.60;56.90;;;;;;5043392;28;19928;-61
2023/07/03 12:13:28;;;;;;;;;;;20.60;57.50;;;;;;5041885;28;19966;-59
2023/07/03 12:15:56;;;;;;;;;;;20.60;57.20;;;;;;5056149;28;19926;-59
2023/07/03 12:18:23;;;;;;;;;;;20.60;57.80;;;;;;5050347;28;20360;-59
2023/07/03 12:20:58;;;;;;;;;;;20.60;57.70;;;;;;5047498;28;19970;-60
2023/07/03 12:23:43;;;;;;;;;;;20.60;57.30;;;;;;5047752;28;19978;-61
2023/07/03 12:26:16;;;;;;;;;;;20.60;57.40;;;;;;5051837;28;20017;-60
2023/07/03 12:28:43;;;;;;;;;;;20.70;59.40;;;;;;5054566;28;19928;-60
2023/07/03 12:31:13;;;;;;;;;;;21.10;61.30;;;;;;5048714;28;19925;-60
2023/07/03 12:33:58;;;;;;;;;;;21.40;60.30;;;;;;5044987;28;20023;-61
2023/07/03 12:36:28;;;;;;;;;;;21.80;59.60;;;;;;5046393;28;19924;-60
2023/07/03 12:38:59;;;;;;;;;;;22.10;58.80;;;;;;5054551;28;19933;-60
2023/07/03 12:41:29;;;;;;;;;;;22.30;58.30;;;;;;5050407;28;20179;-60
2023/07/03 12:43:57;;;;;;;;;;;22.40;57.70;;;;;;5049920;28;19924;-59
2023/07/03 12:46:29;;;;;;;;;;;22.50;57.40;;;;;;5051714;28;19927;-59
2023/07/03 12:49:03;;;;;;;;;;;22.70;57.10;;;;;;5049611;28;20027;-60
2023/07/03 12:51:34;;;;;;;;;;;22.80;56.90;;;;;;5047533;28;20007;-60
2023/07/03 12:54:01;;;;;;;;;;;22.90;56.90;;;;;;5044417;28;20351;-59
2023/07/03 12:56:29;;;;;;;;;;;23.00;56.50;;;;;;5044981;28;19932;-59
2023/07/03 12:58:57;;;;;;;;;;;23.00;56.50;;;;;;5048085;28;20011;-59
2023/07/03 13:01:24;;;;;;;;;;;23.10;56.20;;;;;;5047049;28;20007;-59
2023/07/03 13:03:51;;;;;;;;;;;23.10;56.10;;;;;;5046892;28;20023;-60
2023/07/03 13:06:20;;;;;;;;;;;23.10;56.00;;;;;;5049021;28;19936;-59
2023/07/03 13:08:48;;;;;;;;;;;23.20;56.20;;;;;;5048975;28;19940;-58
2023/07/03 13:11:29;;;;;;;;;;;23.20;56.00;;;;;;5047954;28;20392;-62
2023/07/03 13:14:09;;;;;;;;;;;23.30;55.80;;;;;;5048867;28;19928;-60
2023/07/03 13:16:36;;;;;;;;;;;23.30;55.70;;;;;;5042154;28;20018;-59
2023/07/03 13:19:04;;;;;;;;;;;23.30;55.30;;;;;;5045662;28;19929;-60
2023/07/03 13:21:33;;;;;;;;;;;23.40;55.30;;;;;;5046492;28;19994;-59
2023/07/03 13:24:08;;;;;;;;;;;23.40;55.10;;;;;;5047867;28;19921;-60
2023/07/03 13:26:36;;;;;;;;;;;23.40;54.80;;;;;;5048714;28;19959;-60
2023/07/03 13:29:04;;;;;;;;;;;23.50;54.60;;;;;;5053310;28;19929;-59
2023/07/03 13:31:32;;;;;;;;;;;23.50;54.60;;;;;;5048815;28;20342;-59
2023/07/03 13:34:22;;;;;;;;;;;23.50;54.60;;;;;;5044404;28;19929;-59
2023/07/03 13:37:01;;;;;;;;;;;23.40;52.80;;;;;;5044091;28;19924;-60
2023/07/03 13:39:32;;;;;;;;;;;23.30;52.70;;;;;;5083499;28;19971;-59
2023/07/03 13:41:59;;;;;;;;;;;23.10;52.90;;;;;;5051566;28;19927;-60
2023/07/03 13:44:27;;;;;;;;;;;22.90;53.20;;;;;;5052843;28;19925;-59
2023/07/03 13:46:54;;;;;;;;;;;22.60;53.80;;;;;;5049128;28;19925;-59
2023/07/03 13:49:21;;;;;;;;;;;22.40;54.50;;;;;;5049216;28;19939;-60
2023/07/03 13:51:50;;;;;;;;;;;22.20;55.00;;;;;;5041916;28;19928;-60
2023/07/03 13:54:17;;;;;;;;;;;22.20;55.20;;;;;;5056165;28;19921;-59
2023/07/03 13:56:45;;;;;;;;;;;22.00;55.40;;;;;;5046496;28;20345;-58
2023/07/03 13:59:12;;;;;;;;;;;22.00;55.60;;;;;;5047959;28;19925;-60
2023/07/03 14:01:40;;;;;;;;;;;21.90;55.40;;;;;;5047718;28;19932;-60
2023/07/03 14:04:08;;;;;;;;;;;21.90;58.20;;;;;;5050227;28;19974;-60
2023/07/03 14:06:35;;;;;;;;;;;22.00;63.00;;;;;;5047300;28;19920;-58
2023/07/03 14:09:02;;;;;;;;;;;22.30;64.10;;;;;;5049238;28;20711;-60
2023/07/03 14:11:30;;;;;;;;;;;22.60;65.00;;;;;;5042416;28;20365;-60
2023/07/03 14:13:58;;;;;;;;;;;22.90;65.00;;;;;;5049533;28;19932;-61
2023/07/03 14:16:25;;;;;;;;;;;23.20;64.70;;;;;;5049228;28;19927;-60
2023/07/03 14:18:52;;;;;;;;;;;23.50;64.30;;;;;;5050862;28;20288;-59
2023/07/03 14:21:20;;;;;;;;;;;23.70;64.00;;;;;;5048105;28;20339;-60
2023/07/03 14:23:48;;;;;;;;;;;24.00;63.50;;;;;;5044766;28;19928;-59
2023/07/03 14:26:17;;;;;;;;;;;24.20;63.10;;;;;;5044135;28;20395;-59
2023/07/03 14:28:45;;;;;;;;;;;24.40;63.00;;;;;;5044175;28;19929;-60
2023/07/03 14:31:13;;;;;;;;;;;24.60;62.90;;;;;;5045324;28;20014;-59